Steven M. Bryan — WDF2628 — position and weather

sailwx.info

Track history (hours):
 
Tides and Currents Weather Stations Pressure Air Temp Water Temp Dewpoint Dewpoint Depression Visibility Wind Speed Wind Dir Waves Ship Positions

Steven M. Bryan

Owner: Florida Marine Transporters, Inc., Mandeville, LA. More information available from US FCC via Universal Licensing System and Coast Guard Vessel Documentation Center.

Last reported at 2018-Jun-17 06:18 UTC. Time now 2018-Jun-18 23:18 UTC.
Position N 30°23' W 086°59'.

Length 27 m; draft 9.6 m.

Type: Ship. MMSI: 367430050.

Date/timePositionNaut miles runAvg speedWind from/ knotsBaromVisibWave heightAir tempDewpointWater temp
2018-Jun-17 06:18N 30°23' W 086°59'2 7.4
2018-Jun-17 06:00N 30°23' W 086°56'4 7.4
2018-Jun-17 05:30N 30°24' W 086°52'4 7.4
2018-Jun-17 05:00N 30°24' W 086°48'4 7.4
2018-Jun-17 04:30N 30°24' W 086°44'4 7.5
2018-Jun-17 04:00N 30°24' W 086°39'7 5.5
2018-Jun-17 02:47N 30°25' W 086°32'1 2.1
2018-Jun-17 02:30N 30°26' W 086°31'1 2.0
2018-Jun-17 01:59N 30°26' W 086°30'1 2.7
2018-Jun-17 01:30N 30°26' W 086°28'4 7.6
2018-Jun-17 01:00N 30°26' W 086°24'4 7.6
2018-Jun-17 00:30N 30°26' W 086°20'1 0.0
2018-Jun-15 16:37N 30°26' W 086°18'1 6.4
2018-Jun-15 16:29N 30°26' W 086°19'3 6.3
2018-Jun-15 16:00N 30°26' W 086°23'3 6.4
2018-Jun-15 15:30N 30°26' W 086°27'3 6.5
2018-Jun-15 15:00N 30°26' W 086°30'7 6.2
2018-Jun-15 13:56N 30°24' W 086°38'3 5.4
2018-Jun-15 13:23N 30°24' W 086°41'2 5.9
2018-Jun-15 13:00N 30°24' W 086°44'3 6.3
2018-Jun-15 12:30N 30°24' W 086°47'3 6.5
2018-Jun-15 12:00N 30°24' W 086°51'3 6.5
2018-Jun-15 11:30N 30°23' W 086°55'  
Track history (hours):
 
Tides and Currents Weather Stations Pressure Air Temp Water Temp Dewpoint Dewpoint Depression Visibility Wind Speed Wind Dir Waves Ship Positions

Steven M. Bryan

Owner: Florida Marine Transporters, Inc., Mandeville, LA. More information available from US FCC via Universal Licensing System and Coast Guard Vessel Documentation Center.

Last reported at 2018-Jun-17 06:18 UTC. Time now 2018-Jun-18 23:18 UTC.
Position N 30°23' W 086°59'.

Length 27 m; draft 9.6 m.

Type: Ship. MMSI: 367430050.

Date/timePositionNaut miles runAvg speedWind from/ knotsBaromVisibWave heightAir tempDewpointWater temp
2018-Jun-17 06:18N 30°23' W 086°59'2 7.4
2018-Jun-17 06:00N 30°23' W 086°56'4 7.4
2018-Jun-17 05:30N 30°24' W 086°52'4 7.4
2018-Jun-17 05:00N 30°24' W 086°48'4 7.4
2018-Jun-17 04:30N 30°24' W 086°44'4 7.5
2018-Jun-17 04:00N 30°24' W 086°39'7 5.5
2018-Jun-17 02:47N 30°25' W 086°32'1 2.1
2018-Jun-17 02:30N 30°26' W 086°31'1 2.0
2018-Jun-17 01:59N 30°26' W 086°30'1 2.7
2018-Jun-17 01:30N 30°26' W 086°28'4 7.6
2018-Jun-17 01:00N 30°26' W 086°24'4 7.6
2018-Jun-17 00:30N 30°26' W 086°20'1 0.0
2018-Jun-15 16:37N 30°26' W 086°18'1 6.4
2018-Jun-15 16:29N 30°26' W 086°19'3 6.3
2018-Jun-15 16:00N 30°26' W 086°23'3 6.4
2018-Jun-15 15:30N 30°26' W 086°27'3 6.5
2018-Jun-15 15:00N 30°26' W 086°30'7 6.2
2018-Jun-15 13:56N 30°24' W 086°38'3 5.4
2018-Jun-15 13:23N 30°24' W 086°41'2 5.9
2018-Jun-15 13:00N 30°24' W 086°44'3 6.3
2018-Jun-15 12:30N 30°24' W 086°47'3 6.5
2018-Jun-15 12:00N 30°24' W 086°51'3 6.5
2018-Jun-15 11:30N 30°23' W 086°55'  

Dump ship's entire track history